sensor_id;sensor_type;location;lat;lon;timestamp;P1;durP1;ratioP1;P2;durP2;ratioP2
76379;SDS011;65201;21.060;105.826;2023-04-03T00:01:45;23.75;;;13.88;;
76379;SDS011;65201;21.060;105.826;2023-04-03T00:04:11;16.05;;;13.23;;
76379;SDS011;65201;21.060;105.826;2023-04-03T00:06:37;16.80;;;12.75;;
76379;SDS011;65201;21.060;105.826;2023-04-03T00:09:03;16.08;;;13.00;;
76379;SDS011;65201;21.060;105.826;2023-04-03T00:11:29;15.10;;;12.57;;
76379;SDS011;65201;21.060;105.826;2023-04-03T00:13:55;16.65;;;12.50;;
76379;SDS011;65201;21.060;105.826;2023-04-03T00:16:22;15.07;;;12.05;;
76379;SDS011;65201;21.060;105.826;2023-04-03T00:18:48;18.95;;;11.90;;
76379;SDS011;65201;21.060;105.826;2023-04-03T00:21:14;17.50;;;11.40;;
76379;SDS011;65201;21.060;105.826;2023-04-03T00:23:41;18.93;;;12.23;;
76379;SDS011;65201;21.060;105.826;2023-04-03T00:26:07;17.73;;;12.57;;
76379;SDS011;65201;21.060;105.826;2023-04-03T00:28:33;15.77;;;12.15;;
76379;SDS011;65201;21.060;105.826;2023-04-03T00:30:59;21.52;;;12.20;;
76379;SDS011;65201;21.060;105.826;2023-04-03T00:33:25;14.70;;;12.18;;
76379;SDS011;65201;21.060;105.826;2023-04-03T00:35:52;18.47;;;12.40;;
76379;SDS011;65201;21.060;105.826;2023-04-03T00:38:18;16.35;;;12.10;;
76379;SDS011;65201;21.060;105.826;2023-04-03T00:40:45;17.65;;;12.55;;
76379;SDS011;65201;21.060;105.826;2023-04-03T00:43:13;15.52;;;12.60;;
76379;SDS011;65201;21.060;105.826;2023-04-03T00:45:41;15.85;;;11.93;;
76379;SDS011;65201;21.060;105.826;2023-04-03T00:48:08;13.77;;;11.63;;
76379;SDS011;65201;21.060;105.826;2023-04-03T00:50:37;16.10;;;11.80;;
76379;SDS011;65201;21.060;105.826;2023-04-03T00:53:04;14.30;;;11.38;;
76379;SDS011;65201;21.060;105.826;2023-04-03T00:55:32;13.23;;;11.40;;
76379;SDS011;65201;21.060;105.826;2023-04-03T00:57:58;14.60;;;11.38;;
76379;SDS011;65201;21.060;105.826;2023-04-03T01:00:26;14.63;;;11.77;;
76379;SDS011;65201;21.060;105.826;2023-04-03T01:02:52;13.18;;;11.57;;
76379;SDS011;65201;21.060;105.826;2023-04-03T01:05:19;13.48;;;11.65;;
76379;SDS011;65201;21.060;105.826;2023-04-03T01:07:46;15.02;;;12.10;;
76379;SDS011;65201;21.060;105.826;2023-04-03T01:10:13;14.00;;;11.35;;
76379;SDS011;65201;21.060;105.826;2023-04-03T01:12:41;15.13;;;12.57;;
76379;SDS011;65201;21.060;105.826;2023-04-03T01:15:09;27.05;;;13.10;;
76379;SDS011;65201;21.060;105.826;2023-04-03T01:22:43;15.27;;;11.57;;
76379;SDS011;65201;21.060;105.826;2023-04-03T01:25:10;13.47;;;11.47;;
76379;SDS011;65201;21.060;105.826;2023-04-03T01:27:36;13.68;;;11.25;;
76379;SDS011;65201;21.060;105.826;2023-04-03T01:30:02;16.25;;;11.95;;
76379;SDS011;65201;21.060;105.826;2023-04-03T01:32:28;13.43;;;11.48;;
76379;SDS011;65201;21.060;105.826;2023-04-03T01:34:54;14.15;;;11.70;;
76379;SDS011;65201;21.060;105.826;2023-04-03T01:37:21;15.17;;;11.83;;
76379;SDS011;65201;21.060;105.826;2023-04-03T01:39:47;14.30;;;11.85;;
76379;SDS011;65201;21.060;105.826;2023-04-03T01:42:13;13.57;;;11.73;;
76379;SDS011;65201;21.060;105.826;2023-04-03T01:44:39;15.93;;;11.40;;
76379;SDS011;65201;21.060;105.826;2023-04-03T01:47:05;14.43;;;11.48;;
76379;SDS011;65201;21.060;105.826;2023-04-03T01:49:32;13.30;;;11.30;;
76379;SDS011;65201;21.060;105.826;2023-04-03T01:51:58;15.00;;;11.45;;
76379;SDS011;65201;21.060;105.826;2023-04-03T01:54:24;13.57;;;11.45;;
76379;SDS011;65201;21.060;105.826;2023-04-03T01:56:51;12.73;;;11.05;;
76379;SDS011;65201;21.060;105.826;2023-04-03T01:59:17;13.18;;;11.25;;
76379;SDS011;65201;21.060;105.826;2023-04-03T02:01:44;13.63;;;11.37;;
76379;SDS011;65201;21.060;105.826;2023-04-03T02:04:11;14.80;;;11.60;;
76379;SDS011;65201;21.060;105.826;2023-04-03T02:06:38;14.45;;;11.20;;
76379;SDS011;65201;21.060;105.826;2023-04-03T02:09:04;13.45;;;11.27;;
76379;SDS011;65201;21.060;105.826;2023-04-03T02:11:30;12.23;;;10.93;;
76379;SDS011;65201;21.060;105.826;2023-04-03T02:13:57;13.97;;;11.70;;
76379;SDS011;65201;21.060;105.826;2023-04-03T02:16:23;14.55;;;10.85;;
76379;SDS011;65201;21.060;105.826;2023-04-03T02:18:49;14.30;;;11.27;;
76379;SDS011;65201;21.060;105.826;2023-04-03T02:21:15;15.45;;;11.10;;
76379;SDS011;65201;21.060;105.826;2023-04-03T02:23:42;13.30;;;11.18;;
76379;SDS011;65201;21.060;105.826;2023-04-03T02:26:09;12.50;;;10.97;;
76379;SDS011;65201;21.060;105.826;2023-04-03T02:28:36;21.02;;;11.27;;
76379;SDS011;65201;21.060;105.826;2023-04-03T02:31:02;15.70;;;11.38;;
76379;SDS011;65201;21.060;105.826;2023-04-03T02:33:29;16.30;;;11.85;;
76379;SDS011;65201;21.060;105.826;2023-04-03T02:35:55;13.93;;;10.95;;
76379;SDS011;65201;21.060;105.826;2023-04-03T02:38:22;14.30;;;11.53;;
76379;SDS011;65201;21.060;105.826;2023-04-03T02:40:48;14.60;;;12.10;;
76379;SDS011;65201;21.060;105.826;2023-04-03T02:43:15;14.90;;;11.95;;
76379;SDS011;65201;21.060;105.826;2023-04-03T02:45:41;18.20;;;12.82;;
76379;SDS011;65201;21.060;105.826;2023-04-03T02:48:07;17.23;;;12.68;;
76379;SDS011;65201;21.060;105.826;2023-04-03T02:50:33;21.40;;;12.73;;
76379;SDS011;65201;21.060;105.826;2023-04-03T02:52:59;18.65;;;14.02;;
76379;SDS011;65201;21.060;105.826;2023-04-03T02:55:25;18.45;;;14.05;;
76379;SDS011;65201;21.060;105.826;2023-04-03T02:57:52;15.80;;;13.90;;
76379;SDS011;65201;21.060;105.826;2023-04-03T03:00:18;19.42;;;14.43;;
76379;SDS011;65201;21.060;105.826;2023-04-03T03:02:44;21.37;;;15.53;;
76379;SDS011;65201;21.060;105.826;2023-04-03T03:05:10;20.95;;;16.08;;
76379;SDS011;65201;21.060;105.826;2023-04-03T03:07:36;23.27;;;16.90;;
76379;SDS011;65201;21.060;105.826;2023-04-03T03:10:03;25.05;;;17.60;;
76379;SDS011;65201;21.060;105.826;2023-04-03T03:12:29;20.02;;;16.02;;
76379;SDS011;65201;21.060;105.826;2023-04-03T03:14:55;22.07;;;16.90;;
76379;SDS011;65201;21.060;105.826;2023-04-03T03:17:21;23.20;;;18.35;;
76379;SDS011;65201;21.060;105.826;2023-04-03T03:19:47;21.10;;;17.27;;
76379;SDS011;65201;21.060;105.826;2023-04-03T03:22:13;20.45;;;16.63;;
76379;SDS011;65201;21.060;105.826;2023-04-03T03:24:40;23.80;;;18.30;;
76379;SDS011;65201;21.060;105.826;2023-04-03T03:27:06;23.27;;;18.37;;
76379;SDS011;65201;21.060;105.826;2023-04-03T03:29:32;22.27;;;17.25;;
76379;SDS011;65201;21.060;105.826;2023-04-03T03:31:58;25.45;;;17.27;;
76379;SDS011;65201;21.060;105.826;2023-04-03T03:34:24;25.17;;;17.65;;
76379;SDS011;65201;21.060;105.826;2023-04-03T03:36:50;20.42;;;17.10;;
76379;SDS011;65201;21.060;105.826;2023-04-03T03:39:16;23.83;;;17.87;;
76379;SDS011;65201;21.060;105.826;2023-04-03T03:41:43;22.98;;;18.15;;
76379;SDS011;65201;21.060;105.826;2023-04-03T03:44:09;20.88;;;17.85;;
76379;SDS011;65201;21.060;105.826;2023-04-03T03:46:35;20.92;;;16.17;;
76379;SDS011;65201;21.060;105.826;2023-04-03T03:49:01;24.40;;;17.25;;
76379;SDS011;65201;21.060;105.826;2023-04-03T03:51:27;21.20;;;17.40;;
76379;SDS011;65201;21.060;105.826;2023-04-03T03:53:53;20.85;;;16.33;;
76379;SDS011;65201;21.060;105.826;2023-04-03T03:56:20;21.73;;;17.60;;
76379;SDS011;65201;21.060;105.826;2023-04-03T03:58:46;21.58;;;16.60;;
76379;SDS011;65201;21.060;105.826;2023-04-03T04:01:12;21.02;;;16.65;;
76379;SDS011;65201;21.060;105.826;2023-04-03T04:03:38;22.07;;;16.37;;
76379;SDS011;65201;21.060;105.826;2023-04-03T04:06:05;29.73;;;16.17;;
76379;SDS011;65201;21.060;105.826;2023-04-03T04:08:31;18.92;;;15.70;;
76379;SDS011;65201;21.060;105.826;2023-04-03T04:10:57;24.90;;;16.75;;
76379;SDS011;65201;21.060;105.826;2023-04-03T04:13:23;43.78;;;25.42;;
76379;SDS011;65201;21.060;105.826;2023-04-03T04:15:52;81.17;;;37.50;;
76379;SDS011;65201;21.060;105.826;2023-04-03T04:18:19;113.35;;;45.75;;
76379;SDS011;65201;21.060;105.826;2023-04-03T04:20:46;87.78;;;41.03;;
76379;SDS011;65201;21.060;105.826;2023-04-03T04:23:12;69.20;;;31.83;;
76379;SDS011;65201;21.060;105.826;2023-04-03T04:25:38;62.35;;;30.52;;
76379;SDS011;65201;21.060;105.826;2023-04-03T04:28:05;57.80;;;29.23;;
76379;SDS011;65201;21.060;105.826;2023-04-03T04:30:32;92.05;;;41.50;;
76379;SDS011;65201;21.060;105.826;2023-04-03T04:32:58;175.35;;;101.95;;
76379;SDS011;65201;21.060;105.826;2023-04-03T04:35:25;277.38;;;223.63;;
76379;SDS011;65201;21.060;105.826;2023-04-03T04:37:51;162.45;;;116.10;;
76379;SDS011;65201;21.060;105.826;2023-04-03T04:40:17;139.50;;;95.50;;
76379;SDS011;65201;21.060;105.826;2023-04-03T04:42:43;140.43;;;94.43;;
76379;SDS011;65201;21.060;105.826;2023-04-03T04:45:09;129.10;;;86.97;;
76379;SDS011;65201;21.060;105.826;2023-04-03T04:47:36;113.97;;;81.18;;
76379;SDS011;65201;21.060;105.826;2023-04-03T04:50:02;121.38;;;78.68;;
76379;SDS011;65201;21.060;105.826;2023-04-03T04:52:28;249.83;;;135.87;;
76379;SDS011;65201;21.060;105.826;2023-04-03T04:54:55;222.73;;;157.70;;
76379;SDS011;65201;21.060;105.826;2023-04-03T04:57:26;174.40;;;119.00;;
76379;SDS011;65201;21.060;105.826;2023-04-03T04:59:53;162.20;;;107.57;;
76379;SDS011;65201;21.060;105.826;2023-04-03T05:02:20;138.90;;;99.40;;
76379;SDS011;65201;21.060;105.826;2023-04-03T05:04:46;137.07;;;95.60;;
76379;SDS011;65201;21.060;105.826;2023-04-03T05:07:12;133.80;;;91.32;;
76379;SDS011;65201;21.060;105.826;2023-04-03T05:09:38;125.22;;;85.82;;
76379;SDS011;65201;21.060;105.826;2023-04-03T05:12:10;110.60;;;80.15;;
76379;SDS011;65201;21.060;105.826;2023-04-03T05:14:40;106.88;;;75.05;;
76379;SDS011;65201;21.060;105.826;2023-04-03T05:17:06;99.10;;;68.93;;
76379;SDS011;65201;21.060;105.826;2023-04-03T05:19:32;95.05;;;66.75;;
76379;SDS011;65201;21.060;105.826;2023-04-03T05:21:58;97.47;;;64.05;;
76379;SDS011;65201;21.060;105.826;2023-04-03T05:24:24;88.35;;;62.38;;
76379;SDS011;65201;21.060;105.826;2023-04-03T05:26:51;94.28;;;59.90;;
76379;SDS011;65201;21.060;105.826;2023-04-03T05:29:17;83.67;;;56.70;;
76379;SDS011;65201;21.060;105.826;2023-04-03T05:31:43;78.93;;;53.05;;
76379;SDS011;65201;21.060;105.826;2023-04-03T05:34:10;68.85;;;50.58;;
76379;SDS011;65201;21.060;105.826;2023-04-03T05:36:36;78.00;;;49.22;;
76379;SDS011;65201;21.060;105.826;2023-04-03T05:39:03;66.35;;;46.40;;
76379;SDS011;65201;21.060;105.826;2023-04-03T05:41:29;66.53;;;44.03;;
76379;SDS011;65201;21.060;105.826;2023-04-03T05:43:55;64.40;;;43.97;;
76379;SDS011;65201;21.060;105.826;2023-04-03T05:46:21;60.67;;;43.17;;
76379;SDS011;65201;21.060;105.826;2023-04-03T05:48:47;55.45;;;40.47;;
76379;SDS011;65201;21.060;105.826;2023-04-03T05:51:15;55.17;;;39.17;;
76379;SDS011;65201;21.060;105.826;2023-04-03T05:53:42;54.33;;;38.50;;
76379;SDS011;65201;21.060;105.826;2023-04-03T05:56:09;51.65;;;36.13;;
76379;SDS011;65201;21.060;105.826;2023-04-03T05:58:36;49.40;;;35.58;;
76379;SDS011;65201;21.060;105.826;2023-04-03T06:01:02;48.40;;;35.22;;
76379;SDS011;65201;21.060;105.826;2023-04-03T06:03:28;50.45;;;34.05;;
76379;SDS011;65201;21.060;105.826;2023-04-03T06:05:54;44.83;;;33.67;;
76379;SDS011;65201;21.060;105.826;2023-04-03T06:08:20;44.83;;;32.97;;
76379;SDS011;65201;21.060;105.826;2023-04-03T06:10:46;45.25;;;32.22;;
76379;SDS011;65201;21.060;105.826;2023-04-03T06:13:13;44.60;;;31.58;;
76379;SDS011;65201;21.060;105.826;2023-04-03T06:15:39;40.30;;;30.30;;
76379;SDS011;65201;21.060;105.826;2023-04-03T06:18:05;41.90;;;29.80;;
76379;SDS011;65201;21.060;105.826;2023-04-03T06:20:32;40.78;;;29.45;;
76379;SDS011;65201;21.060;105.826;2023-04-03T06:22:58;42.72;;;29.17;;
76379;SDS011;65201;21.060;105.826;2023-04-03T06:25:25;42.78;;;28.52;;
76379;SDS011;65201;21.060;105.826;2023-04-03T06:27:52;40.53;;;28.10;;
76379;SDS011;65201;21.060;105.826;2023-04-03T06:30:20;42.03;;;28.10;;
76379;SDS011;65201;21.060;105.826;2023-04-03T06:32:47;39.22;;;27.52;;
76379;SDS011;65201;21.060;105.826;2023-04-03T06:35:13;37.40;;;27.92;;
76379;SDS011;65201;21.060;105.826;2023-04-03T06:37:40;35.53;;;25.90;;
76379;SDS011;65201;21.060;105.826;2023-04-03T06:40:06;36.80;;;26.23;;
76379;SDS011;65201;21.060;105.826;2023-04-03T06:42:32;35.47;;;26.33;;
76379;SDS011;65201;21.060;105.826;2023-04-03T06:44:59;35.40;;;25.92;;
76379;SDS011;65201;21.060;105.826;2023-04-03T06:47:26;33.22;;;25.05;;
76379;SDS011;65201;21.060;105.826;2023-04-03T06:49:58;34.92;;;25.50;;
76379;SDS011;65201;21.060;105.826;2023-04-03T06:52:24;33.90;;;25.67;;
76379;SDS011;65201;21.060;105.826;2023-04-03T06:54:50;36.37;;;26.00;;
76379;SDS011;65201;21.060;105.826;2023-04-03T06:57:22;34.42;;;25.40;;
76379;SDS011;65201;21.060;105.826;2023-04-03T06:59:48;36.53;;;25.83;;
76379;SDS011;65201;21.060;105.826;2023-04-03T07:02:15;33.42;;;26.08;;
76379;SDS011;65201;21.060;105.826;2023-04-03T07:04:41;33.33;;;24.50;;
76379;SDS011;65201;21.060;105.826;2023-04-03T07:07:07;32.43;;;24.27;;
76379;SDS011;65201;21.060;105.826;2023-04-03T07:09:33;36.35;;;25.10;;
76379;SDS011;65201;21.060;105.826;2023-04-03T07:12:00;34.90;;;24.15;;
76379;SDS011;65201;21.060;105.826;2023-04-03T07:14:26;32.85;;;24.80;;
76379;SDS011;65201;21.060;105.826;2023-04-03T07:16:52;33.40;;;24.52;;
76379;SDS011;65201;21.060;105.826;2023-04-03T07:19:18;33.97;;;23.90;;
76379;SDS011;65201;21.060;105.826;2023-04-03T07:21:44;33.10;;;24.25;;
76379;SDS011;65201;21.060;105.826;2023-04-03T07:24:11;32.10;;;23.17;;
76379;SDS011;65201;21.060;105.826;2023-04-03T07:26:37;30.00;;;23.02;;
76379;SDS011;65201;21.060;105.826;2023-04-03T07:29:03;31.83;;;23.13;;
76379;SDS011;65201;21.060;105.826;2023-04-03T07:31:29;30.13;;;23.07;;
76379;SDS011;65201;21.060;105.826;2023-04-03T07:33:56;31.90;;;22.65;;
76379;SDS011;65201;21.060;105.826;2023-04-03T07:36:23;30.40;;;21.48;;
76379;SDS011;65201;21.060;105.826;2023-04-03T07:38:53;27.52;;;21.00;;
76379;SDS011;65201;21.060;105.826;2023-04-03T07:41:22;29.15;;;20.88;;
76379;SDS011;65201;21.060;105.826;2023-04-03T07:43:55;27.20;;;20.87;;
76379;SDS011;65201;21.060;105.826;2023-04-03T07:46:22;28.63;;;21.63;;
76379;SDS011;65201;21.060;105.826;2023-04-03T07:48:48;29.75;;;21.70;;
76379;SDS011;65201;21.060;105.826;2023-04-03T07:51:14;30.38;;;21.35;;
76379;SDS011;65201;21.060;105.826;2023-04-03T07:53:41;32.05;;;21.48;;
76379;SDS011;65201;21.060;105.826;2023-04-03T07:56:07;34.27;;;21.47;;
76379;SDS011;65201;21.060;105.826;2023-04-03T07:58:36;26.90;;;20.70;;
76379;SDS011;65201;21.060;105.826;2023-04-03T08:04:06;25.50;;;19.63;;
76379;SDS011;65201;21.060;105.826;2023-04-03T08:06:32;26.10;;;19.50;;
76379;SDS011;65201;21.060;105.826;2023-04-03T08:09:01;26.70;;;19.13;;
76379;SDS011;65201;21.060;105.826;2023-04-03T08:11:29;26.80;;;19.98;;
76379;SDS011;65201;21.060;105.826;2023-04-03T08:13:56;25.65;;;19.92;;
76379;SDS011;65201;21.060;105.826;2023-04-03T08:16:23;26.33;;;20.02;;
76379;SDS011;65201;21.060;105.826;2023-04-03T08:18:52;29.38;;;19.67;;
76379;SDS011;65201;21.060;105.826;2023-04-03T08:21:18;25.37;;;19.27;;
76379;SDS011;65201;21.060;105.826;2023-04-03T08:23:44;24.48;;;18.52;;
76379;SDS011;65201;21.060;105.826;2023-04-03T08:26:14;25.48;;;20.27;;
76379;SDS011;65201;21.060;105.826;2023-04-03T08:28:41;25.25;;;18.95;;
76379;SDS011;65201;21.060;105.826;2023-04-03T08:31:09;26.75;;;18.92;;
76379;SDS011;65201;21.060;105.826;2023-04-03T08:33:36;27.13;;;18.30;;
76379;SDS011;65201;21.060;105.826;2023-04-03T08:36:06;29.08;;;18.60;;
76379;SDS011;65201;21.060;105.826;2023-04-03T08:38:33;23.60;;;18.30;;
76379;SDS011;65201;21.060;105.826;2023-04-03T08:43:48;21.40;;;17.05;;
76379;SDS011;65201;21.060;105.826;2023-04-03T08:46:19;24.67;;;18.17;;
76379;SDS011;65201;21.060;105.826;2023-04-03T08:48:48;23.60;;;17.60;;
76379;SDS011;65201;21.060;105.826;2023-04-03T08:51:17;24.80;;;17.42;;
76379;SDS011;65201;21.060;105.826;2023-04-03T08:53:46;25.70;;;17.70;;
76379;SDS011;65201;21.060;105.826;2023-04-03T08:56:16;24.30;;;17.70;;
76379;SDS011;65201;21.060;105.826;2023-04-03T09:01:35;25.45;;;17.73;;
76379;SDS011;65201;21.060;105.826;2023-04-03T09:04:00;24.02;;;18.45;;
76379;SDS011;65201;21.060;105.826;2023-04-03T09:06:27;22.73;;;17.80;;
76379;SDS011;65201;21.060;105.826;2023-04-03T09:11:25;26.47;;;17.17;;
76379;SDS011;65201;21.060;105.826;2023-04-03T09:14:07;24.08;;;18.00;;
76379;SDS011;65201;21.060;105.826;2023-04-03T09:16:48;25.50;;;17.30;;
76379;SDS011;65201;21.060;105.826;2023-04-03T09:21:41;23.23;;;18.38;;
76379;SDS011;65201;21.060;105.826;2023-04-03T09:24:09;25.43;;;17.37;;
76379;SDS011;65201;21.060;105.826;2023-04-03T09:26:39;21.98;;;17.05;;
76379;SDS011;65201;21.060;105.826;2023-04-03T09:29:07;25.65;;;17.55;;
76379;SDS011;65201;21.060;105.826;2023-04-03T09:31:38;23.67;;;17.45;;
76379;SDS011;65201;21.060;105.826;2023-04-03T09:34:24;23.85;;;17.63;;
76379;SDS011;65201;21.060;105.826;2023-04-03T09:36:53;22.90;;;17.40;;
76379;SDS011;65201;21.060;105.826;2023-04-03T09:39:20;24.60;;;17.33;;
76379;SDS011;65201;21.060;105.826;2023-04-03T09:41:57;25.42;;;17.98;;
76379;SDS011;65201;21.060;105.826;2023-04-03T09:44:25;24.98;;;17.45;;
76379;SDS011;65201;21.060;105.826;2023-04-03T09:46:51;23.58;;;17.52;;
76379;SDS011;65201;21.060;105.826;2023-04-03T09:49:18;22.33;;;17.60;;
76379;SDS011;65201;21.060;105.826;2023-04-03T09:51:45;24.55;;;17.70;;
76379;SDS011;65201;21.060;105.826;2023-04-03T09:54:32;24.75;;;18.27;;
76379;SDS011;65201;21.060;105.826;2023-04-03T09:57:01;22.85;;;17.63;;
76379;SDS011;65201;21.060;105.826;2023-04-03T09:59:29;25.15;;;17.48;;
76379;SDS011;65201;21.060;105.826;2023-04-03T10:02:02;27.67;;;16.73;;
76379;SDS011;65201;21.060;105.826;2023-04-03T10:04:38;26.52;;;16.85;;
76379;SDS011;65201;21.060;105.826;2023-04-03T10:07:25;25.77;;;16.08;;
76379;SDS011;65201;21.060;105.826;2023-04-03T10:09:55;20.23;;;15.73;;
76379;SDS011;65201;21.060;105.826;2023-04-03T10:12:35;23.98;;;16.33;;
76379;SDS011;65201;21.060;105.826;2023-04-03T10:15:01;22.53;;;15.67;;
76379;SDS011;65201;21.060;105.826;2023-04-03T10:22:45;28.85;;;17.40;;
76379;SDS011;65201;21.060;105.826;2023-04-03T10:28:02;25.87;;;17.37;;
76379;SDS011;65201;21.060;105.826;2023-04-03T10:43:17;27.65;;;16.70;;
76379;SDS011;65201;21.060;105.826;2023-04-03T10:45:52;22.30;;;15.77;;
76379;SDS011;65201;21.060;105.826;2023-04-03T10:48:31;29.48;;;16.20;;
76379;SDS011;65201;21.060;105.826;2023-04-03T10:58:48;19.42;;;14.55;;
76379;SDS011;65201;21.060;105.826;2023-04-03T11:01:20;25.90;;;13.93;;
76379;SDS011;65201;21.060;105.826;2023-04-03T11:03:48;19.00;;;13.75;;
76379;SDS011;65201;21.060;105.826;2023-04-03T11:06:16;20.17;;;13.23;;
76379;SDS011;65201;21.060;105.826;2023-04-03T11:11:14;22.20;;;13.75;;
76379;SDS011;65201;21.060;105.826;2023-04-03T11:13:52;19.73;;;13.50;;
76379;SDS011;65201;21.060;105.826;2023-04-03T11:16:23;18.23;;;14.15;;
76379;SDS011;65201;21.060;105.826;2023-04-03T11:18:59;18.80;;;13.97;;
76379;SDS011;65201;21.060;105.826;2023-04-03T11:21:35;19.95;;;13.65;;
76379;SDS011;65201;21.060;105.826;2023-04-03T11:24:13;18.33;;;13.38;;
76379;SDS011;65201;21.060;105.826;2023-04-03T11:26:52;29.65;;;17.60;;
76379;SDS011;65201;21.060;105.826;2023-04-03T11:29:20;33.75;;;16.95;;
76379;SDS011;65201;21.060;105.826;2023-04-03T11:32:02;52.80;;;25.17;;
76379;SDS011;65201;21.060;105.826;2023-04-03T11:37:02;54.75;;;24.58;;
76379;SDS011;65201;21.060;105.826;2023-04-03T11:39:33;46.58;;;24.58;;
76379;SDS011;65201;21.060;105.826;2023-04-03T11:42:14;50.20;;;23.65;;
76379;SDS011;65201;21.060;105.826;2023-04-03T11:44:41;46.13;;;21.17;;
76379;SDS011;65201;21.060;105.826;2023-04-03T11:47:08;37.05;;;21.17;;
76379;SDS011;65201;21.060;105.826;2023-04-03T11:55:36;37.00;;;19.45;;
76379;SDS011;65201;21.060;105.826;2023-04-03T12:03:22;34.25;;;19.73;;
76379;SDS011;65201;21.060;105.826;2023-04-03T12:13:40;33.45;;;18.73;;
76379;SDS011;65201;21.060;105.826;2023-04-03T12:16:53;34.58;;;18.73;;
76379;SDS011;65201;21.060;105.826;2023-04-03T12:19:03;33.00;;;19.38;;
76379;SDS011;65201;21.060;105.826;2023-04-03T12:29:13;30.83;;;19.35;;
76379;SDS011;65201;21.060;105.826;2023-04-03T12:31:47;31.08;;;18.05;;
76379;SDS011;65201;21.060;105.826;2023-04-03T12:39:46;27.83;;;18.48;;
76379;SDS011;65201;21.060;105.826;2023-04-03T12:45:20;30.48;;;17.92;;
76379;SDS011;65201;21.060;105.826;2023-04-03T12:47:48;24.38;;;17.88;;
76379;SDS011;65201;21.060;105.826;2023-04-03T12:50:21;26.43;;;17.67;;
76379;SDS011;65201;21.060;105.826;2023-04-03T12:52:54;25.83;;;17.30;;
76379;SDS011;65201;21.060;105.826;2023-04-03T12:55:22;26.30;;;17.25;;
76379;SDS011;65201;21.060;105.826;2023-04-03T12:57:48;27.80;;;18.20;;
76379;SDS011;65201;21.060;105.826;2023-04-03T13:00:22;28.00;;;18.38;;
76379;SDS011;65201;21.060;105.826;2023-04-03T13:02:51;25.20;;;17.23;;
76379;SDS011;65201;21.060;105.826;2023-04-03T13:05:17;30.35;;;17.50;;
76379;SDS011;65201;21.060;105.826;2023-04-03T13:07:44;24.45;;;16.98;;
76379;SDS011;65201;21.060;105.826;2023-04-03T13:10:17;30.48;;;17.30;;
76379;SDS011;65201;21.060;105.826;2023-04-03T13:12:51;26.55;;;17.20;;
76379;SDS011;65201;21.060;105.826;2023-04-03T13:17:50;26.10;;;16.95;;
76379;SDS011;65201;21.060;105.826;2023-04-03T13:20:26;25.48;;;17.30;;
76379;SDS011;65201;21.060;105.826;2023-04-03T13:22:56;26.42;;;16.65;;
76379;SDS011;65201;21.060;105.826;2023-04-03T13:25:23;23.17;;;16.27;;
76379;SDS011;65201;21.060;105.826;2023-04-03T13:27:50;22.67;;;16.23;;
76379;SDS011;65201;21.060;105.826;2023-04-03T13:30:24;21.40;;;15.20;;
76379;SDS011;65201;21.060;105.826;2023-04-03T13:32:51;23.63;;;15.82;;
76379;SDS011;65201;21.060;105.826;2023-04-03T13:35:33;21.17;;;16.17;;
76379;SDS011;65201;21.060;105.826;2023-04-03T13:38:01;26.15;;;14.85;;
76379;SDS011;65201;21.060;105.826;2023-04-03T13:40:27;25.77;;;15.53;;
76379;SDS011;65201;21.060;105.826;2023-04-03T13:43:05;22.05;;;15.75;;
76379;SDS011;65201;21.060;105.826;2023-04-03T13:45:32;23.63;;;15.90;;
76379;SDS011;65201;21.060;105.826;2023-04-03T13:48:18;24.58;;;15.27;;
76379;SDS011;65201;21.060;105.826;2023-04-03T13:53:19;20.43;;;14.83;;
76379;SDS011;65201;21.060;105.826;2023-04-03T13:55:59;24.23;;;15.38;;
76379;SDS011;65201;21.060;105.826;2023-04-03T13:58:27;22.75;;;15.65;;
76379;SDS011;65201;21.060;105.826;2023-04-03T14:01:17;19.73;;;15.02;;
76379;SDS011;65201;21.060;105.826;2023-04-03T14:06:18;21.33;;;14.97;;
76379;SDS011;65201;21.060;105.826;2023-04-03T14:08:44;20.00;;;13.65;;
76379;SDS011;65201;21.060;105.826;2023-04-03T14:11:12;21.05;;;15.25;;
76379;SDS011;65201;21.060;105.826;2023-04-03T14:13:39;19.63;;;14.35;;
76379;SDS011;65201;21.060;105.826;2023-04-03T14:16:05;19.75;;;13.68;;
76379;SDS011;65201;21.060;105.826;2023-04-03T14:18:31;18.63;;;13.70;;
76379;SDS011;65201;21.060;105.826;2023-04-03T14:20:58;19.17;;;13.70;;
76379;SDS011;65201;21.060;105.826;2023-04-03T14:23:23;20.58;;;14.18;;
76379;SDS011;65201;21.060;105.826;2023-04-03T14:25:50;20.67;;;14.07;;
76379;SDS011;65201;21.060;105.826;2023-04-03T14:28:17;18.42;;;13.43;;
76379;SDS011;65201;21.060;105.826;2023-04-03T14:30:44;20.67;;;13.73;;
76379;SDS011;65201;21.060;105.826;2023-04-03T14:33:13;18.42;;;14.20;;
76379;SDS011;65201;21.060;105.826;2023-04-03T14:35:39;19.95;;;14.07;;
76379;SDS011;65201;21.060;105.826;2023-04-03T14:38:12;19.27;;;13.98;;
76379;SDS011;65201;21.060;105.826;2023-04-03T14:40:45;17.48;;;13.40;;
76379;SDS011;65201;21.060;105.826;2023-04-03T14:43:12;20.20;;;13.57;;
76379;SDS011;65201;21.060;105.826;2023-04-03T14:45:38;18.60;;;13.98;;
76379;SDS011;65201;21.060;105.826;2023-04-03T14:48:04;21.42;;;13.93;;
76379;SDS011;65201;21.060;105.826;2023-04-03T14:50:32;18.45;;;13.75;;
76379;SDS011;65201;21.060;105.826;2023-04-03T14:52:58;19.33;;;12.87;;
76379;SDS011;65201;21.060;105.826;2023-04-03T14:55:24;17.55;;;13.13;;
76379;SDS011;65201;21.060;105.826;2023-04-03T14:57:51;19.42;;;13.68;;
76379;SDS011;65201;21.060;105.826;2023-04-03T15:00:18;19.55;;;13.35;;
76379;SDS011;65201;21.060;105.826;2023-04-03T15:02:44;15.88;;;13.10;;
76379;SDS011;65201;21.060;105.826;2023-04-03T15:05:11;18.63;;;13.70;;
76379;SDS011;65201;21.060;105.826;2023-04-03T15:07:39;18.98;;;12.93;;
76379;SDS011;65201;21.060;105.826;2023-04-03T15:10:16;18.35;;;13.00;;
76379;SDS011;65201;21.060;105.826;2023-04-03T15:12:43;15.30;;;12.43;;
76379;SDS011;65201;21.060;105.826;2023-04-03T15:15:09;18.58;;;13.00;;
76379;SDS011;65201;21.060;105.826;2023-04-03T15:17:35;19.53;;;13.23;;
76379;SDS011;65201;21.060;105.826;2023-04-03T15:20:02;18.23;;;12.77;;
76379;SDS011;65201;21.060;105.826;2023-04-03T15:22:28;20.10;;;13.68;;
76379;SDS011;65201;21.060;105.826;2023-04-03T15:24:54;18.70;;;13.30;;
76379;SDS011;65201;21.060;105.826;2023-04-03T15:27:20;18.02;;;13.02;;
76379;SDS011;65201;21.060;105.826;2023-04-03T15:29:46;21.57;;;13.50;;
76379;SDS011;65201;21.060;105.826;2023-04-03T15:32:12;19.02;;;12.65;;
76379;SDS011;65201;21.060;105.826;2023-04-03T15:34:38;16.58;;;12.18;;
76379;SDS011;65201;21.060;105.826;2023-04-03T15:37:04;16.75;;;12.38;;